Time;durP1;ratioP1;P1;durP2;ratioP2;P2;SDS_P1;SDS_P2;PMS_P1;PMS_P2;Temp;Humidity;BMP_temperature;BMP_pressure;BME280_temperature;BME280_humidity;BME280_pressure;Samples;Min_cycle;Max_cycle;Signal;HPM_P1;HPM_P2
2024/01/01 00:00:15;;;;;;;73.28;47.00;;;8.50;99.90;;;;;;4974950;28;20057;-76
2024/01/01 00:02:42;;;;;;;68.03;45.47;;;8.50;99.90;;;;;;4975643;28;20477;-80
2024/01/01 00:05:10;;;;;;;78.35;52.15;;;8.50;99.90;;;;;;4974129;28;20042;-75
2024/01/01 00:07:37;;;;;;;80.35;56.72;;;8.60;99.90;;;;;;4972984;28;20524;-80
2024/01/01 00:10:04;;;;;;;77.18;50.08;;;8.60;99.90;;;;;;4975678;28;20037;-80
2024/01/01 00:12:33;;;;;;;51.45;26.67;;;8.50;99.90;;;;;;4974832;28;20034;-79
2024/01/01 00:14:59;;;;;;;44.92;28.50;;;8.50;99.90;;;;;;4976800;28;20030;-79
2024/01/01 00:17:26;;;;;;;42.72;27.65;;;8.60;99.90;;;;;;4959607;28;20547;-81
2024/01/01 00:19:52;;;;;;;41.53;25.23;;;8.60;99.90;;;;;;4991099;28;20023;-78
2024/01/01 00:22:18;;;;;;;43.38;23.67;;;8.60;99.90;;;;;;4976012;28;20811;-78
2024/01/01 00:24:45;;;;;;;34.42;20.65;;;8.60;99.90;;;;;;4959253;28;20371;-79
2024/01/01 00:27:11;;;;;;;31.15;17.42;;;8.60;99.90;;;;;;4957024;28;20046;-80
2024/01/01 00:29:37;;;;;;;29.38;15.32;;;8.60;99.90;;;;;;4943620;28;20038;-79
2024/01/01 00:32:05;;;;;;;26.35;16.10;;;8.50;99.90;;;;;;4962038;28;20038;-76
2024/01/01 00:34:32;;;;;;;28.20;15.50;;;8.50;99.90;;;;;;4975786;28;20053;-79
2024/01/01 00:36:58;;;;;;;24.70;14.93;;;8.40;99.90;;;;;;4959015;28;20034;-80
2024/01/01 00:39:24;;;;;;;27.05;15.43;;;8.40;99.90;;;;;;4942482;28;20050;-80
2024/01/01 00:41:51;;;;;;;24.67;14.52;;;8.30;99.90;;;;;;4942394;28;20069;-80
2024/01/01 00:44:17;;;;;;;33.90;17.38;;;8.30;99.90;;;;;;4975385;28;20046;-80
2024/01/01 00:46:43;;;;;;;25.35;12.48;;;8.30;99.90;;;;;;4941735;28;20053;-80
2024/01/01 00:49:10;;;;;;;20.70;8.23;;;8.20;99.90;;;;;;4958639;28;20034;-79
2024/01/01 00:51:37;;;;;;;32.55;15.85;;;8.30;99.90;;;;;;4975002;28;20066;-76
2024/01/01 00:54:03;;;;;;;16.20;9.10;;;8.30;99.90;;;;;;4958102;28;20108;-75
2024/01/01 00:56:30;;;;;;;15.52;7.97;;;8.30;99.90;;;;;;4957170;28;20034;-76
2024/01/01 00:58:56;;;;;;;18.90;7.25;;;8.30;99.90;;;;;;4974687;28;20037;-81
2024/01/01 01:01:22;;;;;;;17.15;7.75;;;8.30;99.90;;;;;;4974765;28;20029;-78
2024/01/01 01:03:49;;;;;;;15.55;6.40;;;8.30;99.90;;;;;;4957614;28;20038;-76
2024/01/01 01:06:15;;;;;;;15.38;5.85;;;8.30;99.90;;;;;;4957895;28;20034;-79
2024/01/01 01:08:41;;;;;;;11.80;4.38;;;8.30;99.90;;;;;;4974286;28;20045;-79
2024/01/01 01:11:08;;;;;;;11.38;3.85;;;8.30;99.90;;;;;;4958129;28;20489;-81
2024/01/01 01:13:34;;;;;;;8.07;2.33;;;8.30;99.90;;;;;;4974659;28;20045;-80
2024/01/01 01:16:00;;;;;;;7.28;2.55;;;8.20;99.90;;;;;;4974181;28;20500;-76
2024/01/01 01:18:27;;;;;;;9.00;2.55;;;8.20;99.90;;;;;;4973450;28;20060;-77
2024/01/01 01:20:53;;;;;;;8.88;2.25;;;8.20;99.90;;;;;;4974891;28;20042;-81
2024/01/01 01:23:19;;;;;;;9.85;2.80;;;8.20;99.90;;;;;;4972839;28;20505;-80
2024/01/01 01:25:46;;;;;;;8.48;2.85;;;8.10;99.90;;;;;;4972822;28;20038;-80
2024/01/01 01:28:21;;;;;;;4.93;1.65;;;8.10;99.90;;;;;;4958728;28;20381;-81
2024/01/01 01:30:47;;;;;;;4.70;2.10;;;8.10;99.90;;;;;;4957474;28;20389;-80
2024/01/01 01:33:13;;;;;;;4.97;1.38;;;8.10;99.90;;;;;;4957757;28;20045;-81
2024/01/01 01:35:40;;;;;;;7.00;1.40;;;8.10;99.90;;;;;;4973398;28;20042;-81
2024/01/01 01:38:06;;;;;;;4.00;1.90;;;8.00;99.90;;;;;;4973606;28;20034;-81
2024/01/01 01:40:32;;;;;;;5.68;2.38;;;8.00;99.90;;;;;;4974264;28;20934;-82
2024/01/01 01:42:59;;;;;;;8.07;1.60;;;8.00;99.90;;;;;;4989670;28;20042;-79
2024/01/01 01:45:25;;;;;;;5.95;1.27;;;7.90;99.90;;;;;;4974148;28;20034;-78
2024/01/01 01:47:52;;;;;;;5.88;1.20;;;7.90;99.90;;;;;;4974780;28;20034;-80
2024/01/01 01:50:20;;;;;;;4.15;1.15;;;7.90;99.90;;;;;;4972180;28;20500;-78
2024/01/01 01:52:48;;;;;;;4.30;1.25;;;7.80;99.90;;;;;;4939980;28;20045;-80
2024/01/01 01:55:21;;;;;;;6.93;1.50;;;7.80;99.90;;;;;;4954705;28;20397;-79
2024/01/01 01:57:48;;;;;;;6.28;2.42;;;7.80;99.90;;;;;;4973362;28;20041;-82
2024/01/01 02:00:15;;;;;;;7.70;1.98;;;7.80;99.90;;;;;;4972024;28;20049;-84
2024/01/01 02:02:42;;;;;;;9.00;1.98;;;7.80;99.90;;;;;;4973733;28;20057;-81
2024/01/01 02:05:09;;;;;;;6.50;1.92;;;7.80;99.90;;;;;;4957042;28;20046;-81
2024/01/01 02:07:35;;;;;;;7.80;1.85;;;7.70;99.90;;;;;;4956697;28;20034;-82
2024/01/01 02:10:02;;;;;;;5.57;2.17;;;7.70;99.90;;;;;;4973359;28;20421;-83
2024/01/01 02:12:29;;;;;;;10.55;2.42;;;7.70;99.90;;;;;;4954072;28;20038;-79
2024/01/01 02:14:55;;;;;;;5.95;1.90;;;7.70;99.90;;;;;;4957039;28;20038;-82
2024/01/01 02:17:21;;;;;;;5.47;2.13;;;7.70;99.90;;;;;;4973011;28;20492;-81
2024/01/01 02:19:50;;;;;;;13.68;4.07;;;7.60;99.90;;;;;;4971437;28;20030;-79
2024/01/01 02:22:16;;;;;;;11.05;3.13;;;7.70;99.90;;;;;;4955755;28;20144;-81
2024/01/01 02:24:42;;;;;;;9.82;2.60;;;7.60;99.90;;;;;;4972724;28;20038;-82
2024/01/01 02:27:09;;;;;;;5.50;2.55;;;7.70;99.90;;;;;;4970845;28;20065;-81
2024/01/01 02:29:35;;;;;;;6.68;1.73;;;7.60;99.90;;;;;;4972749;28;20038;-81
2024/01/01 02:32:02;;;;;;;7.97;1.92;;;7.60;99.90;;;;;;4989500;28;20050;-78
2024/01/01 02:34:29;;;;;;;6.65;2.08;;;7.60;99.90;;;;;;4958220;28;20413;-81
2024/01/01 02:36:55;;;;;;;8.60;2.50;;;7.60;99.90;;;;;;4972611;28;20362;-82
2024/01/01 02:39:22;;;;;;;6.93;2.33;;;7.60;99.90;;;;;;4975843;28;20141;-81
2024/01/01 02:41:48;;;;;;;8.57;2.70;;;7.60;99.90;;;;;;4941121;28;20031;-77
2024/01/01 02:44:14;;;;;;;7.28;2.25;;;7.60;99.90;;;;;;4957117;28;20541;-81
2024/01/01 02:46:41;;;;;;;10.07;2.22;;;7.70;99.90;;;;;;4956699;28;20038;-79
2024/01/01 02:49:07;;;;;;;10.02;2.15;;;7.60;99.90;;;;;;4957626;28;20440;-82
2024/01/01 02:51:33;;;;;;;7.78;1.75;;;7.70;99.90;;;;;;4972612;28;20038;-80
2024/01/01 02:54:00;;;;;;;7.55;1.33;;;7.60;99.90;;;;;;4939963;28;20038;-76
2024/01/01 02:56:26;;;;;;;9.18;2.08;;;7.60;99.90;;;;;;4971205;28;20034;-80
2024/01/01 02:58:53;;;;;;;12.13;2.22;;;7.50;99.90;;;;;;4973410;28;20409;-81
2024/01/01 03:01:19;;;;;;;10.07;1.98;;;7.40;99.90;;;;;;4956430;28;20687;-82
2024/01/01 03:03:46;;;;;;;8.32;1.85;;;7.40;99.90;;;;;;4973994;28;20053;-81
2024/01/01 03:06:16;;;;;;;12.82;2.00;;;7.40;99.90;;;;;;4975803;28;20038;-78
2024/01/01 03:08:42;;;;;;;10.25;1.50;;;7.30;99.90;;;;;;4975996;28;20034;-82
2024/01/01 03:11:09;;;;;;;10.07;1.58;;;7.30;99.90;;;;;;4975833;28;20034;-80
2024/01/01 03:13:35;;;;;;;10.05;2.58;;;7.30;99.90;;;;;;4975763;28;20046;-80
2024/01/01 03:16:02;;;;;;;9.63;1.80;;;7.30;99.90;;;;;;4976039;28;20034;-80
2024/01/01 03:18:29;;;;;;;10.02;1.70;;;7.30;99.90;;;;;;4942366;28;20377;-81
2024/01/01 03:20:55;;;;;;;8.38;1.48;;;7.30;99.90;;;;;;4959846;28;20504;-77
2024/01/01 03:23:21;;;;;;;9.77;1.88;;;7.30;99.90;;;;;;4943530;28;20034;-79
2024/01/01 03:25:48;;;;;;;11.80;2.25;;;7.30;99.90;;;;;;4958827;28;20053;-80
2024/01/01 03:28:14;;;;;;;14.20;2.22;;;7.30;99.90;;;;;;4976572;28;20038;-78
2024/01/01 03:30:41;;;;;;;14.30;1.80;;;7.30;99.90;;;;;;4976430;28;20049;-78
2024/01/01 03:33:09;;;;;;;11.00;1.95;;;7.30;99.90;;;;;;4975864;28;20654;-76
2024/01/01 03:35:35;;;;;;;11.35;1.83;;;7.30;99.90;;;;;;4975294;28;20030;-80
2024/01/01 03:38:02;;;;;;;12.40;1.95;;;7.30;99.90;;;;;;4960267;28;20022;-80
2024/01/01 03:40:30;;;;;;;15.30;1.85;;;7.40;99.90;;;;;;4992707;28;20030;-76
2024/01/01 03:42:56;;;;;;;12.93;1.77;;;7.40;99.90;;;;;;4975342;28;20034;-80
2024/01/01 03:45:23;;;;;;;14.70;2.70;;;7.40;99.90;;;;;;4975125;28;20038;-78
2024/01/01 03:47:49;;;;;;;13.02;2.05;;;7.30;99.90;;;;;;4976008;28;20031;-80
2024/01/01 03:50:16;;;;;;;13.23;1.20;;;7.30;99.90;;;;;;4976082;28;20029;-79
2024/01/01 03:52:43;;;;;;;13.90;1.95;;;7.30;99.90;;;;;;4959858;28;20038;-79
2024/01/01 03:55:09;;;;;;;10.30;1.30;;;7.30;99.90;;;;;;4959576;28;20045;-79
2024/01/01 03:57:36;;;;;;;13.27;1.48;;;7.30;99.90;;;;;;4975648;28;20397;-80
2024/01/01 04:00:03;;;;;;;15.23;1.83;;;7.30;99.90;;;;;;4975967;28;20856;-80
2024/01/01 04:02:31;;;;;;;13.48;1.50;;;7.30;99.90;;;;;;4975735;28;20031;-79
2024/01/01 04:04:58;;;;;;;11.55;2.05;;;7.30;99.90;;;;;;4976036;28;20030;-80
2024/01/01 04:07:24;;;;;;;18.52;1.85;;;7.30;99.90;;;;;;4975926;28;20030;-78
2024/01/01 04:09:51;;;;;;;13.00;1.45;;;7.30;99.90;;;;;;4976684;28;20038;-81
2024/01/01 04:12:17;;;;;;;11.63;1.65;;;7.30;99.90;;;;;;4944341;28;20329;-81
2024/01/01 04:14:44;;;;;;;12.15;1.40;;;7.30;99.90;;;;;;4975125;28;20018;-78
2024/01/01 04:17:11;;;;;;;9.27;1.45;;;7.30;99.90;;;;;;4959477;28;20038;-79
2024/01/01 04:19:37;;;;;;;12.55;1.80;;;7.40;99.90;;;;;;4976029;28;20049;-78
2024/01/01 04:22:04;;;;;;;16.08;2.00;;;7.40;99.90;;;;;;4976439;28;20488;-77
2024/01/01 04:24:30;;;;;;;14.13;2.03;;;7.30;99.90;;;;;;4975823;28;20038;-78
2024/01/01 04:26:56;;;;;;;16.92;1.95;;;7.30;99.90;;;;;;4959792;28;20038;-79
2024/01/01 04:29:22;;;;;;;15.63;2.22;;;7.30;99.90;;;;;;4974619;28;20030;-77
2024/01/01 04:31:49;;;;;;;12.80;1.50;;;7.40;99.90;;;;;;4976813;28;20030;-78
2024/01/01 04:34:17;;;;;;;11.43;1.63;;;7.40;99.90;;;;;;4959944;28;20038;-77
2024/01/01 04:36:44;;;;;;;13.88;1.70;;;7.50;99.90;;;;;;4977693;28;20026;-78
2024/01/01 04:39:10;;;;;;;13.75;2.13;;;7.50;99.90;;;;;;4977264;28;20566;-76
2024/01/01 04:41:37;;;;;;;12.15;1.60;;;7.50;99.90;;;;;;4960532;28;20049;-78
2024/01/01 04:44:03;;;;;;;11.82;2.08;;;7.50;99.90;;;;;;4959431;28;20033;-79
2024/01/01 04:46:29;;;;;;;13.50;1.85;;;7.50;99.90;;;;;;4975417;28;20426;-80
2024/01/01 04:48:56;;;;;;;14.82;2.75;;;7.50;99.90;;;;;;4976045;28;20033;-76
2024/01/01 04:51:22;;;;;;;14.38;2.20;;;7.50;99.90;;;;;;4977232;28;20507;-79
2024/01/01 04:53:49;;;;;;;12.48;1.70;;;7.60;99.90;;;;;;4990082;28;20035;-78
2024/01/01 04:56:16;;;;;;;13.40;1.63;;;7.60;99.90;;;;;;4973498;28;20025;-81
2024/01/01 04:58:46;;;;;;;14.98;1.52;;;7.60;99.90;;;;;;4975619;28;20488;-78
2024/01/01 05:01:12;;;;;;;13.32;1.15;;;7.60;99.90;;;;;;4960175;28;20022;-77
2024/01/01 05:03:39;;;;;;;9.27;1.30;;;7.60;99.90;;;;;;4976591;28;20034;-75
2024/01/01 05:06:05;;;;;;;11.65;1.33;;;7.60;99.90;;;;;;4974056;28;20038;-79
2024/01/01 05:08:32;;;;;;;11.77;1.13;;;7.60;99.90;;;;;;4959542;28;20504;-80
2024/01/01 05:11:02;;;;;;;13.13;1.55;;;7.60;99.90;;;;;;4975937;28;20053;-80
2024/01/01 05:13:28;;;;;;;15.10;2.10;;;7.60;99.90;;;;;;4976170;28;20046;-79
2024/01/01 05:15:55;;;;;;;18.17;1.45;;;7.60;99.90;;;;;;4974514;28;20373;-80
2024/01/01 05:18:21;;;;;;;10.80;1.58;;;7.60;99.90;;;;;;4978029;28;20035;-77
2024/01/01 05:20:47;;;;;;;13.15;1.75;;;7.50;99.90;;;;;;4993318;28;20034;-77
2024/01/01 05:23:14;;;;;;;9.40;1.38;;;7.50;99.90;;;;;;4992995;28;21085;-78
2024/01/01 05:25:40;;;;;;;13.10;1.85;;;7.50;99.90;;;;;;4978529;28;20033;-78
2024/01/01 05:28:08;;;;;;;12.00;1.58;;;7.50;99.90;;;;;;4977088;28;20033;-79
2024/01/01 05:30:35;;;;;;;6.80;0.80;;;7.50;99.90;;;;;;4960993;28;20034;-78
2024/01/01 05:33:01;;;;;;;11.00;1.60;;;7.40;99.90;;;;;;4991345;28;20489;-80
2024/01/01 05:35:27;;;;;;;9.48;1.20;;;7.40;99.90;;;;;;4976220;28;20038;-80
2024/01/01 05:37:56;;;;;;;9.25;1.42;;;7.40;99.90;;;;;;4975078;28;20029;-79
2024/01/01 05:40:23;;;;;;;12.32;1.63;;;7.40;99.90;;;;;;4974565;28;20045;-81
2024/01/01 05:42:49;;;;;;;11.63;1.63;;;7.40;99.90;;;;;;4959120;28;20345;-79
2024/01/01 05:45:15;;;;;;;11.65;1.73;;;7.40;99.90;;;;;;4975992;28;20042;-79
2024/01/01 05:47:42;;;;;;;12.73;1.98;;;7.30;99.90;;;;;;4974879;28;20034;-80
2024/01/01 05:50:09;;;;;;;12.02;1.63;;;7.30;99.90;;;;;;4975420;28;20733;-79
2024/01/01 05:52:36;;;;;;;9.65;1.48;;;7.40;99.90;;;;;;4974818;28;20481;-77
2024/01/01 05:55:02;;;;;;;12.95;1.73;;;7.30;99.90;;;;;;4959141;28;20030;-80
2024/01/01 05:57:29;;;;;;;8.88;1.42;;;7.40;99.90;;;;;;4974731;28;20026;-76
2024/01/01 05:59:55;;;;;;;13.88;1.52;;;7.40;99.90;;;;;;4973706;28;20038;-79
2024/01/01 06:02:21;;;;;;;10.02;1.55;;;7.40;99.90;;;;;;4974232;28;20065;-78
2024/01/01 06:04:48;;;;;;;11.70;1.52;;;7.40;99.90;;;;;;4974355;28;20496;-77
2024/01/01 06:07:14;;;;;;;10.43;1.45;;;7.40;99.90;;;;;;4974079;28;20033;-79
2024/01/01 06:09:40;;;;;;;11.15;1.05;;;7.40;99.90;;;;;;4958383;28;20030;-76
2024/01/01 06:12:07;;;;;;;11.52;1.55;;;7.40;99.90;;;;;;4974647;28;20053;-77
2024/01/01 06:14:33;;;;;;;12.63;1.63;;;7.40;99.90;;;;;;4974477;28;20034;-80
2024/01/01 06:16:59;;;;;;;12.55;1.83;;;7.40;99.90;;;;;;4958348;28;20116;-80
2024/01/01 06:19:25;;;;;;;9.23;1.23;;;7.40;99.90;;;;;;4958434;28;20032;-79
2024/01/01 06:21:52;;;;;;;9.13;1.10;;;7.30;99.90;;;;;;4974877;28;20053;-79
2024/01/01 06:24:18;;;;;;;6.72;1.40;;;7.30;99.90;;;;;;4974244;28;20030;-78
2024/01/01 06:26:45;;;;;;;11.48;1.02;;;7.40;99.90;;;;;;4976469;28;20057;-80
2024/01/01 06:29:11;;;;;;;12.18;2.13;;;7.40;99.90;;;;;;4977369;28;20026;-78
2024/01/01 06:31:37;;;;;;;9.63;1.35;;;7.40;99.90;;;;;;4975692;28;20034;-77
2024/01/01 06:34:04;;;;;;;15.68;1.20;;;7.40;99.90;;;;;;4974306;28;20050;-79
2024/01/01 06:36:30;;;;;;;12.02;1.65;;;7.40;99.90;;;;;;4973449;28;20050;-77
2024/01/01 06:38:56;;;;;;;9.88;1.30;;;7.40;99.90;;;;;;4979783;28;20576;-76
2024/01/01 06:41:23;;;;;;;11.73;1.75;;;7.40;99.90;;;;;;4979472;28;20030;-80
2024/01/01 06:43:49;;;;;;;11.05;1.70;;;7.40;99.90;;;;;;4978878;28;20058;-78
2024/01/01 06:46:15;;;;;;;9.90;1.35;;;7.40;99.90;;;;;;4945910;28;20038;-81
2024/01/01 06:48:42;;;;;;;15.85;1.80;;;7.30;99.90;;;;;;4977085;28;20038;-78
2024/01/01 06:51:10;;;;;;;15.20;1.80;;;7.30;99.90;;;;;;4977676;28;20497;-78
2024/01/01 06:53:37;;;;;;;7.82;1.73;;;7.30;99.90;;;;;;4978370;28;20057;-79
2024/01/01 06:56:04;;;;;;;12.05;1.20;;;7.30;99.90;;;;;;4962166;28;20038;-75
2024/01/01 06:58:30;;;;;;;16.60;2.03;;;7.30;99.90;;;;;;4980305;28;20038;-79
2024/01/01 07:00:56;;;;;;;8.75;1.42;;;7.30;99.90;;;;;;4961572;28;20034;-78
2024/01/01 07:03:23;;;;;;;10.80;1.42;;;7.30;99.90;;;;;;4979289;28;20505;-80
2024/01/01 07:05:49;;;;;;;8.15;1.20;;;7.20;99.90;;;;;;4960183;28;20037;-77
2024/01/01 07:08:16;;;;;;;10.95;1.48;;;7.30;99.90;;;;;;4976417;28;20034;-77
2024/01/01 07:10:42;;;;;;;7.60;1.38;;;7.30;99.90;;;;;;4958123;28;20496;-78
2024/01/01 07:13:08;;;;;;;11.32;1.80;;;7.30;99.90;;;;;;4958258;28;20038;-77
2024/01/01 07:15:35;;;;;;;8.35;1.67;;;7.30;99.90;;;;;;4975387;28;20034;-77
2024/01/01 07:18:01;;;;;;;12.95;2.50;;;7.40;99.90;;;;;;4977114;28;20042;-76
2024/01/01 07:20:27;;;;;;;14.30;4.75;;;7.40;99.90;;;;;;4980269;28;20030;-77
2024/01/01 07:22:54;;;;;;;20.48;7.57;;;7.40;99.90;;;;;;4961975;28;20600;-78
2024/01/01 07:25:20;;;;;;;18.27;8.48;;;7.40;99.90;;;;;;4980158;28;20038;-78
2024/01/01 07:27:46;;;;;;;32.55;12.57;;;7.40;99.90;;;;;;4979262;28;20039;-79
2024/01/01 07:30:14;;;;;;;31.40;11.10;;;7.40;99.90;;;;;;4978572;28;20536;-75
2024/01/01 07:32:41;;;;;;;19.30;5.47;;;7.40;99.90;;;;;;4979031;28;20050;-76
2024/01/01 07:35:08;;;;;;;12.85;4.15;;;7.40;99.90;;;;;;4963209;28;20405;-76
2024/01/01 07:37:35;;;;;;;14.18;2.85;;;7.40;99.90;;;;;;4994235;28;20385;-79
2024/01/01 07:40:01;;;;;;;9.43;1.92;;;7.30;99.90;;;;;;4978795;28;20049;-78
2024/01/01 07:42:28;;;;;;;11.18;2.00;;;7.30;99.90;;;;;;4977696;28;20042;-78
2024/01/01 07:44:54;;;;;;;15.27;2.80;;;7.40;99.90;;;;;;4974911;28;20038;-76
2024/01/01 07:47:21;;;;;;;12.70;2.88;;;7.40;99.90;;;;;;4977033;28;20057;-79
2024/01/01 07:49:47;;;;;;;8.38;2.03;;;7.40;99.90;;;;;;4977135;28;20034;-77
2024/01/01 07:52:14;;;;;;;11.23;1.73;;;7.40;99.90;;;;;;4945629;28;20721;-78
2024/01/01 07:54:40;;;;;;;7.93;2.05;;;7.40;99.90;;;;;;4978250;28;20038;-77
2024/01/01 07:57:06;;;;;;;12.02;2.55;;;7.40;99.90;;;;;;4979536;28;20030;-77
2024/01/01 07:59:33;;;;;;;12.25;2.80;;;7.40;99.90;;;;;;4945778;28;20089;-78
2024/01/01 08:02:00;;;;;;;11.23;2.22;;;7.40;99.90;;;;;;4961701;28;20022;-77
2024/01/01 08:04:27;;;;;;;12.30;2.80;;;7.40;99.90;;;;;;4993146;28;20050;-76
2024/01/01 08:06:53;;;;;;;10.57;2.53;;;7.40;99.90;;;;;;4960705;28;20037;-79
2024/01/01 08:09:19;;;;;;;10.80;2.13;;;7.40;99.90;;;;;;4945146;28;20449;-78
2024/01/01 08:11:46;;;;;;;10.55;2.35;;;7.40;99.90;;;;;;4977645;28;20037;-74
2024/01/01 08:14:12;;;;;;;9.18;2.35;;;7.40;99.90;;;;;;4977106;28;20424;-78
2024/01/01 08:16:38;;;;;;;15.98;2.60;;;7.40;99.90;;;;;;4976175;28;20045;-78
2024/01/01 08:19:06;;;;;;;11.25;2.08;;;7.40;99.90;;;;;;4976634;28;20039;-78
2024/01/01 08:21:33;;;;;;;12.85;2.38;;;7.50;99.90;;;;;;4960301;28;20038;-74
2024/01/01 08:23:59;;;;;;;9.02;2.20;;;7.50;99.90;;;;;;4961138;28;20084;-77
2024/01/01 08:26:26;;;;;;;13.65;2.45;;;7.40;99.90;;;;;;4978686;28;20042;-79
2024/01/01 08:28:53;;;;;;;13.82;2.10;;;7.40;99.90;;;;;;4976574;28;20476;-76
2024/01/01 08:31:20;;;;;;;10.90;2.22;;;7.40;99.90;;;;;;4979223;28;20041;-75
2024/01/01 08:33:46;;;;;;;15.95;2.65;;;7.40;99.90;;;;;;4975805;28;21317;-78
2024/01/01 08:36:13;;;;;;;12.55;3.15;;;7.40;99.90;;;;;;4961417;28;20038;-78
2024/01/01 08:38:39;;;;;;;11.15;1.80;;;7.40;99.90;;;;;;4978166;28;20045;-76
2024/01/01 08:41:06;;;;;;;13.70;2.47;;;7.40;99.90;;;;;;4961551;28;20027;-80
2024/01/01 08:43:32;;;;;;;10.00;2.47;;;7.40;99.90;;;;;;4975743;28;20509;-78
2024/01/01 08:46:00;;;;;;;12.73;2.38;;;7.40;99.90;;;;;;4959924;28;20587;-79
2024/01/01 08:48:26;;;;;;;13.05;2.63;;;7.40;99.90;;;;;;4976699;28;20038;-76
2024/01/01 08:50:53;;;;;;;14.30;3.60;;;7.40;99.90;;;;;;4992772;28;20486;-77
2024/01/01 08:53:19;;;;;;;11.30;2.72;;;7.30;99.90;;;;;;4977173;28;20054;-78
2024/01/01 08:55:45;;;;;;;16.73;3.35;;;7.30;99.90;;;;;;4960885;28;20404;-79
2024/01/01 08:58:12;;;;;;;8.73;1.70;;;7.30;99.90;;;;;;4976504;28;20034;-79
2024/01/01 09:00:38;;;;;;;12.02;2.78;;;7.30;99.90;;;;;;4975935;28;20508;-75
2024/01/01 09:03:04;;;;;;;13.52;2.60;;;7.30;99.90;;;;;;4976215;28;20496;-74
2024/01/01 09:05:31;;;;;;;15.13;2.30;;;7.30;99.90;;;;;;4960148;28;20041;-78
2024/01/01 09:07:57;;;;;;;13.95;3.08;;;7.30;99.90;;;;;;4992841;28;20045;-80
2024/01/01 09:10:24;;;;;;;10.90;2.38;;;7.30;99.90;;;;;;4977106;28;20026;-79
2024/01/01 09:12:50;;;;;;;16.33;2.03;;;7.30;99.90;;;;;;4976555;28;20040;-77
2024/01/01 09:15:17;;;;;;;9.85;2.20;;;7.30;99.90;;;;;;4944688;28;20041;-74
2024/01/01 09:17:46;;;;;;;12.38;3.28;;;7.30;99.90;;;;;;4974316;28;20038;-79
2024/01/01 09:20:12;;;;;;;15.85;3.47;;;7.40;99.90;;;;;;4975840;28;20029;-78
2024/01/01 09:22:38;;;;;;;11.43;2.70;;;7.40;99.90;;;;;;4990986;28;20030;-76
2024/01/01 09:25:05;;;;;;;10.23;2.45;;;7.30;99.90;;;;;;4976813;28;20038;-78
2024/01/01 09:27:31;;;;;;;13.07;2.55;;;7.30;99.90;;;;;;4959705;28;20385;-80
2024/01/01 09:29:58;;;;;;;10.50;1.92;;;7.30;99.90;;;;;;4975774;28;20049;-80
2024/01/01 09:32:24;;;;;;;9.88;1.98;;;7.30;99.90;;;;;;4959454;28;20034;-79
2024/01/01 09:34:50;;;;;;;12.63;2.03;;;7.30;99.90;;;;;;4958054;28;20045;-78
2024/01/01 09:37:17;;;;;;;10.75;1.40;;;7.30;99.90;;;;;;4976357;28;20909;-79
2024/01/01 09:39:43;;;;;;;9.80;1.90;;;7.30;99.90;;;;;;4974344;28;20046;-80
2024/01/01 09:42:10;;;;;;;7.90;2.20;;;7.30;99.90;;;;;;4976632;28;20034;-79
2024/01/01 09:44:37;;;;;;;13.00;2.97;;;7.40;99.90;;;;;;4973880;28;20046;-74
2024/01/01 09:47:05;;;;;;;13.52;2.67;;;7.50;99.90;;;;;;4989574;28;20053;-78
2024/01/01 09:49:32;;;;;;;13.77;2.80;;;7.50;99.90;;;;;;4976022;28;20046;-79
2024/01/01 09:51:58;;;;;;;7.65;1.85;;;7.50;99.90;;;;;;4974442;28;20035;-75
2024/01/01 09:54:25;;;;;;;6.45;2.10;;;7.50;99.90;;;;;;4958734;28;20042;-80
2024/01/01 09:56:52;;;;;;;9.20;2.47;;;7.50;99.90;;;;;;4973617;28;20393;-78
2024/01/01 09:59:38;;;;;;;15.25;2.90;;;7.60;99.90;;;;;;4958828;28;20305;-78
2024/01/01 10:02:06;;;;;;;9.40;1.98;;;7.60;99.90;;;;;;4958579;28;20473;-81
2024/01/01 10:04:34;;;;;;;9.18;2.05;;;7.60;99.90;;;;;;4978470;28;20564;-79
2024/01/01 10:07:01;;;;;;;7.53;1.95;;;7.50;99.90;;;;;;4975952;28;20030;-79
2024/01/01 10:09:29;;;;;;;9.20;1.77;;;7.50;99.90;;;;;;4976330;28;20076;-75
2024/01/01 10:12:11;;;;;;;10.93;1.52;;;7.50;99.90;;;;;;4959951;28;20026;-78
2024/01/01 10:14:46;;;;;;;9.77;1.75;;;7.50;99.90;;;;;;4958891;28;20050;-77
2024/01/01 10:17:17;;;;;;;8.38;1.58;;;7.50;99.90;;;;;;4975583;28;20042;-78
2024/01/01 10:19:52;;;;;;;8.02;1.60;;;7.40;99.90;;;;;;4975934;28;20038;-78
2024/01/01 10:22:19;;;;;;;11.13;2.25;;;7.50;99.90;;;;;;4976809;28;20252;-78
2024/01/01 10:24:47;;;;;;;9.80;2.35;;;7.50;99.90;;;;;;4978294;28;20583;-80
2024/01/01 10:27:19;;;;;;;5.90;1.48;;;7.50;99.90;;;;;;4977097;28;20042;-79
2024/01/01 10:29:49;;;;;;;6.68;2.17;;;7.50;99.90;;;;;;4960560;28;20488;-80
2024/01/01 10:32:16;;;;;;;10.38;1.52;;;7.40;99.90;;;;;;4960084;28;20037;-79
2024/01/01 10:34:46;;;;;;;7.78;2.03;;;7.40;99.90;;;;;;4959015;28;20418;-75
2024/01/01 10:37:20;;;;;;;12.18;2.28;;;7.40;99.90;;;;;;4975416;28;20022;-80
2024/01/01 10:39:47;;;;;;;6.88;1.73;;;7.40;99.90;;;;;;4990526;28;20038;-74
2024/01/01 10:42:14;;;;;;;8.88;1.85;;;7.40;99.90;;;;;;4976042;28;20345;-80
2024/01/01 10:44:40;;;;;;;10.48;1.88;;;7.40;99.90;;;;;;4957941;28;20405;-79
2024/01/01 10:47:09;;;;;;;5.28;1.20;;;7.40;99.90;;;;;;4975544;28;20045;-79
2024/01/01 10:49:39;;;;;;;6.88;1.65;;;7.50;99.90;;;;;;4959091;28;20042;-79
2024/01/01 10:52:28;;;;;;;8.63;1.83;;;7.50;99.90;;;;;;4974799;28;20034;-79
2024/01/01 10:55:19;;;;;;;9.07;2.15;;;7.60;99.90;;;;;;4974352;28;20050;-78
2024/01/01 10:57:59;;;;;;;5.90;1.92;;;7.60;99.90;;;;;;4990497;28;20030;-78
2024/01/01 11:00:32;;;;;;;6.53;1.60;;;7.60;99.90;;;;;;4974178;28;20046;-77
2024/01/01 11:02:59;;;;;;;6.38;1.50;;;7.60;99.90;;;;;;4990204;28;20034;-80
2024/01/01 11:05:33;;;;;;;9.65;2.00;;;7.60;99.90;;;;;;4975918;28;20038;-77
2024/01/01 11:08:01;;;;;;;14.32;2.80;;;7.70;99.90;;;;;;4976760;28;20030;-75
2024/01/01 11:10:49;;;;;;;7.97;1.98;;;7.70;99.90;;;;;;4976058;28;20477;-78
2024/01/01 11:13:27;;;;;;;10.65;1.90;;;7.80;99.90;;;;;;4975772;28;20512;-78
2024/01/01 11:16:04;;;;;;;8.57;1.52;;;8.00;99.90;;;;;;4974943;28;20038;-78
2024/01/01 11:18:35;;;;;;;9.75;1.35;;;8.10;99.90;;;;;;4957972;28;20049;-80
2024/01/01 11:21:02;;;;;;;10.35;2.15;;;8.10;99.90;;;;;;4974924;28;20046;-76
2024/01/01 11:23:46;;;;;;;7.78;2.13;;;8.20;99.90;;;;;;4975510;28;20038;-80
2024/01/01 11:26:34;;;;;;;10.63;2.22;;;8.10;99.90;;;;;;4993504;28;20042;-79
2024/01/01 11:29:26;;;;;;;6.97;1.50;;;8.10;99.90;;;;;;4977419;28;20046;-78
2024/01/01 11:32:03;;;;;;;9.02;2.40;;;7.90;99.90;;;;;;4977773;28;20034;-78
2024/01/01 11:34:29;;;;;;;7.10;1.90;;;7.90;99.90;;;;;;4975582;28;20053;-79
2024/01/01 11:36:55;;;;;;;8.00;1.95;;;7.80;99.90;;;;;;4976800;28;20469;-77
2024/01/01 11:39:24;;;;;;;8.13;2.38;;;7.80;99.90;;;;;;4979201;28;20034;-80
2024/01/01 11:41:51;;;;;;;8.43;2.35;;;7.70;99.90;;;;;;4979003;28;20057;-80
2024/01/01 11:44:18;;;;;;;7.40;2.10;;;7.70;99.90;;;;;;4995437;28;20039;-79
2024/01/01 11:46:46;;;;;;;11.27;2.40;;;7.70;99.90;;;;;;4978691;28;20037;-80
2024/01/01 11:49:12;;;;;;;12.07;3.25;;;7.70;99.90;;;;;;4962873;28;20031;-79
2024/01/01 11:51:57;;;;;;;10.63;2.42;;;7.80;99.90;;;;;;4978098;28;20037;-79
2024/01/01 11:54:26;;;;;;;15.77;3.17;;;7.90;99.90;;;;;;4977833;28;20504;-77
2024/01/01 11:56:56;;;;;;;10.55;2.72;;;8.00;99.90;;;;;;4963253;28;20038;-79
2024/01/01 11:59:24;;;;;;;6.18;1.90;;;8.00;99.90;;;;;;4961873;28;20041;-80
2024/01/01 12:01:50;;;;;;;6.80;1.95;;;8.00;99.90;;;;;;4963235;28;20041;-79
2024/01/01 12:04:17;;;;;;;9.07;2.03;;;8.00;99.90;;;;;;4962354;28;20042;-80
2024/01/01 12:06:51;;;;;;;7.57;2.00;;;7.90;99.90;;;;;;4998574;28;20039;-79
2024/01/01 12:09:20;;;;;;;12.68;2.15;;;7.90;99.90;;;;;;4978516;28;20031;-81
2024/01/01 12:11:47;;;;;;;9.20;1.42;;;7.80;99.90;;;;;;4979570;28;20030;-79
2024/01/01 12:14:13;;;;;;;7.38;1.48;;;7.80;99.90;;;;;;4963014;28;20061;-77
2024/01/01 12:16:42;;;;;;;8.93;2.22;;;7.80;99.90;;;;;;4979102;28;20050;-78
2024/01/01 12:19:19;;;;;;;9.50;2.10;;;7.80;99.90;;;;;;4979613;28;20034;-80
2024/01/01 12:21:45;;;;;;;7.95;1.40;;;7.70;99.90;;;;;;4978976;28;20031;-78
2024/01/01 12:24:26;;;;;;;11.30;1.30;;;7.70;99.90;;;;;;4979629;28;20030;-75
2024/01/01 12:27:01;;;;;;;10.82;1.65;;;7.70;99.90;;;;;;4978060;28;20058;-78
2024/01/01 12:29:29;;;;;;;12.27;2.15;;;7.60;99.90;;;;;;4978101;28;20031;-77
2024/01/01 12:31:56;;;;;;;11.48;1.60;;;7.50;99.90;;;;;;4962055;28;20034;-79
2024/01/01 12:34:24;;;;;;;9.05;2.10;;;7.50;99.90;;;;;;4960476;28;20042;-77
2024/01/01 12:36:50;;;;;;;9.90;1.38;;;7.50;99.90;;;;;;4979279;28;20037;-80
2024/01/01 12:39:17;;;;;;;9.93;2.53;;;7.50;99.90;;;;;;4978712;28;20049;-81
2024/01/01 12:41:44;;;;;;;12.73;2.03;;;7.70;99.90;;;;;;4976720;28;20511;-82
2024/01/01 12:44:10;;;;;;;13.95;2.17;;;7.90;99.90;;;;;;4977044;28;20026;-81
2024/01/01 12:46:37;;;;;;;10.23;1.67;;;8.10;99.90;;;;;;4971998;28;20034;-81
2024/01/01 12:49:05;;;;;;;10.65;1.77;;;8.20;99.90;;;;;;4977973;28;20030;-81
2024/01/01 12:51:31;;;;;;;9.68;1.90;;;8.30;99.90;;;;;;4981155;28;20465;-78